createdAt,value
2022-12-23T00:01:46.734Z,91.30
2022-12-23T00:04:13.578Z,90.93
2022-12-23T00:06:40.962Z,91.17
2022-12-23T00:09:07.969Z,91.19
2022-12-23T00:11:34.656Z,91.09
2022-12-23T00:14:21.893Z,91.37
2022-12-23T00:16:50.625Z,91.24
2022-12-23T00:19:17.522Z,91.07
2022-12-23T00:21:44.135Z,90.90
2022-12-23T00:24:12.188Z,90.27
2022-12-23T00:26:39.539Z,91.14
2022-12-23T00:29:07.171Z,91.95
2022-12-23T00:31:33.883Z,92.23
2022-12-23T00:34:00.567Z,92.39
2022-12-23T00:36:30.725Z,92.26
2022-12-23T00:39:17.852Z,92.23
2022-12-23T00:42:06.895Z,92.09
2022-12-23T00:44:33.728Z,92.21
2022-12-23T00:47:00.436Z,92.08
2022-12-23T00:49:42.537Z,92.03
2022-12-23T00:52:16.119Z,91.94
2022-12-23T00:54:43.011Z,91.88
2022-12-23T00:57:09.962Z,91.70
2022-12-23T00:59:36.570Z,91.60
2022-12-23T01:02:21.915Z,91.40
2022-12-23T01:05:07.879Z,91.55
2022-12-23T01:07:34.777Z,91.28
2022-12-23T01:10:01.778Z,91.44
2022-12-23T01:12:28.408Z,91.10
2022-12-23T01:14:55.289Z,91.10
2022-12-23T01:17:22.266Z,90.47
2022-12-23T01:19:49.000Z,90.65
2022-12-23T01:22:15.607Z,90.79
2022-12-23T01:24:45.087Z,90.84
2022-12-23T01:27:12.004Z,90.44
2022-12-23T01:29:38.648Z,90.61
2022-12-23T01:32:05.342Z,90.23
2022-12-23T01:34:36.656Z,90.40
2022-12-23T01:37:05.085Z,90.52
2022-12-23T01:39:32.224Z,90.34
2022-12-23T01:42:24.488Z,90.46
2022-12-23T01:44:51.182Z,89.91
2022-12-23T01:47:29.740Z,89.24
2022-12-23T01:50:02.466Z,90.02
2022-12-23T01:52:34.674Z,90.00
2022-12-23T01:55:01.461Z,90.22
2022-12-23T01:57:28.747Z,90.23
2022-12-23T02:00:13.993Z,90.19
2022-12-23T02:03:02.940Z,90.11
2022-12-23T02:05:29.904Z,89.84
2022-12-23T02:08:15.728Z,90.52
2022-12-23T02:11:11.681Z,90.39
2022-12-23T02:14:10.219Z,90.85
2022-12-23T02:16:49.147Z,91.01
2022-12-23T02:19:50.083Z,90.80
2022-12-23T02:22:35.064Z,91.14
2022-12-23T02:25:20.451Z,91.13
2022-12-23T02:27:50.021Z,91.05
2022-12-23T02:30:35.467Z,90.76
2022-12-23T02:33:59.322Z,90.54
2022-12-23T02:36:57.814Z,90.65
2022-12-23T02:39:45.381Z,90.39
2022-12-23T02:42:17.268Z,90.61
2022-12-23T02:44:49.756Z,90.81
2022-12-23T02:47:21.323Z,90.88
2022-12-23T02:49:53.479Z,90.48
2022-12-23T02:52:25.000Z,90.45
2022-12-23T02:55:00.234Z,90.34
2022-12-23T02:57:34.339Z,90.50
2022-12-23T03:00:03.451Z,90.89
2022-12-23T03:02:35.983Z,91.21
2022-12-23T03:05:03.717Z,91.32
2022-12-23T03:07:33.784Z,91.21
2022-12-23T03:10:18.866Z,91.29
2022-12-23T03:13:28.207Z,90.84
2022-12-23T03:16:13.378Z,90.77
2022-12-23T03:18:52.288Z,91.02
2022-12-23T03:21:35.716Z,91.46
2022-12-23T03:24:29.203Z,91.77
2022-12-23T03:27:08.620Z,91.40
2022-12-23T03:29:44.192Z,91.71
2022-12-23T03:32:13.911Z,91.36
2022-12-23T03:34:45.615Z,91.38
2022-12-23T03:37:14.619Z,91.29
2022-12-23T03:39:47.469Z,91.54
2022-12-23T03:42:29.014Z,91.06
2022-12-23T03:45:28.378Z,91.06
2022-12-23T03:47:55.044Z,91.27
2022-12-23T03:50:23.876Z,91.16
2022-12-23T03:52:56.087Z,91.18
2022-12-23T03:55:38.081Z,91.43
2022-12-23T03:58:10.217Z,91.21
2022-12-23T04:00:44.779Z,91.35
2022-12-23T04:03:22.486Z,91.32
2022-12-23T04:05:58.885Z,91.52
2022-12-23T04:08:36.416Z,91.50
2022-12-23T04:11:21.568Z,91.46
2022-12-23T04:13:48.738Z,91.33
2022-12-23T04:16:15.889Z,90.94
2022-12-23T04:18:42.664Z,90.60
2022-12-23T04:21:09.166Z,90.77
2022-12-23T04:23:35.989Z,90.51
2022-12-23T04:26:02.621Z,90.40
2022-12-23T04:28:29.290Z,90.19
2022-12-23T04:30:55.954Z,89.78
2022-12-23T04:33:22.699Z,89.85
2022-12-23T04:35:49.366Z,88.98
2022-12-23T04:38:16.411Z,88.70
2022-12-23T04:40:46.939Z,88.99
2022-12-23T04:43:14.516Z,88.53
2022-12-23T04:45:41.099Z,88.78
2022-12-23T04:48:07.741Z,88.64
2022-12-23T04:50:34.514Z,88.28
2022-12-23T04:53:01.592Z,88.14
2022-12-23T04:55:28.395Z,88.10
2022-12-23T04:57:55.247Z,88.60
2022-12-23T05:00:22.223Z,88.20
2022-12-23T05:02:49.516Z,88.31
2022-12-23T05:05:16.682Z,88.44
2022-12-23T05:07:43.723Z,88.68
2022-12-23T05:10:10.894Z,88.63
2022-12-23T05:12:38.051Z,88.64
2022-12-23T05:15:05.309Z,88.22
2022-12-23T05:17:32.082Z,88.34
2022-12-23T05:19:58.855Z,88.76
2022-12-23T05:22:35.055Z,88.75
2022-12-23T05:25:01.920Z,88.58
2022-12-23T05:27:28.702Z,88.25
2022-12-23T05:29:55.622Z,88.18
2022-12-23T05:32:22.415Z,88.16
2022-12-23T05:34:51.621Z,87.62
2022-12-23T05:37:27.237Z,87.77
2022-12-23T05:39:53.912Z,87.88
2022-12-23T05:42:21.764Z,87.17
2022-12-23T05:44:48.609Z,86.93
2022-12-23T05:47:15.519Z,87.57
2022-12-23T05:49:42.651Z,87.36
2022-12-23T05:52:12.365Z,87.37
2022-12-23T05:54:39.050Z,87.10
2022-12-23T05:57:05.632Z,87.27
2022-12-23T05:59:32.893Z,87.45
2022-12-23T06:02:08.835Z,87.78
2022-12-23T06:04:35.837Z,86.92
2022-12-23T06:07:02.528Z,86.81
2022-12-23T06:09:32.503Z,86.90
2022-12-23T06:11:59.246Z,87.02
2022-12-23T06:14:29.001Z,86.60
2022-12-23T06:16:59.161Z,86.65
2022-12-23T06:19:27.083Z,86.67
2022-12-23T06:21:53.871Z,85.77
2022-12-23T06:24:20.952Z,86.42
2022-12-23T06:26:51.911Z,86.25
2022-12-23T06:29:21.860Z,86.92
2022-12-23T06:31:48.624Z,87.04
2022-12-23T06:34:15.732Z,87.39
2022-12-23T06:36:42.485Z,87.30
2022-12-23T06:39:10.718Z,87.35
2022-12-23T06:41:40.377Z,87.44
2022-12-23T06:44:07.367Z,87.81
2022-12-23T06:46:34.376Z,87.15
2022-12-23T06:49:01.226Z,87.56
2022-12-23T06:51:28.273Z,87.60
2022-12-23T06:53:55.073Z,87.78
2022-12-23T06:56:22.210Z,87.08
2022-12-23T06:58:49.018Z,87.34
2022-12-23T07:01:16.015Z,87.04
2022-12-23T07:03:42.983Z,87.44
2022-12-23T07:06:09.879Z,87.22
2022-12-23T07:08:37.144Z,87.49
2022-12-23T07:11:05.131Z,87.80
2022-12-23T07:13:33.257Z,88.28
2022-12-23T07:16:06.924Z,88.14
2022-12-23T07:18:52.427Z,88.16
2022-12-23T07:21:26.695Z,88.49
2022-12-23T07:23:55.672Z,88.60
2022-12-23T07:26:22.526Z,87.83
2022-12-23T07:28:49.065Z,88.24
2022-12-23T07:31:16.339Z,88.09
2022-12-23T07:33:43.021Z,87.55
2022-12-23T07:36:09.721Z,87.69
2022-12-23T07:38:36.344Z,87.51
2022-12-23T07:41:03.156Z,87.86
2022-12-23T07:43:30.809Z,87.27
2022-12-23T07:46:00.861Z,88.53
2022-12-23T07:48:28.365Z,87.75
2022-12-23T07:51:06.978Z,87.42
2022-12-23T07:53:33.899Z,87.04
2022-12-23T07:56:00.500Z,87.50
2022-12-23T07:58:27.261Z,86.84
2022-12-23T08:01:08.002Z,86.55
2022-12-23T08:03:35.076Z,87.08
2022-12-23T08:06:08.247Z,87.10
2022-12-23T08:08:35.786Z,86.52
2022-12-23T08:11:08.738Z,86.96
2022-12-23T08:13:38.888Z,86.10
2022-12-23T08:16:07.037Z,86.19
2022-12-23T08:18:36.113Z,86.45
2022-12-23T08:21:05.662Z,86.49
2022-12-23T08:23:33.039Z,85.78
2022-12-23T08:26:05.204Z,85.99
2022-12-23T08:28:33.056Z,87.04
2022-12-23T08:31:21.097Z,86.82
2022-12-23T08:33:50.775Z,86.08
2022-12-23T08:36:23.026Z,85.62
2022-12-23T08:38:52.131Z,85.44
2022-12-23T08:41:22.275Z,85.27
2022-12-23T08:43:48.898Z,85.18
2022-12-23T08:46:15.624Z,85.03
2022-12-23T08:48:48.656Z,85.65
2022-12-23T08:51:17.759Z,84.53
2022-12-23T08:53:45.648Z,84.76
2022-12-23T08:56:43.564Z,83.92
2022-12-23T08:59:29.256Z,83.98
2022-12-23T09:02:12.517Z,83.79
2022-12-23T09:04:54.011Z,84.51
2022-12-23T09:07:40.427Z,82.81
2022-12-23T09:10:13.879Z,79.97
2022-12-23T09:12:44.353Z,80.51
2022-12-23T09:15:14.782Z,80.62
2022-12-23T09:17:42.311Z,80.17
2022-12-23T09:20:13.312Z,81.00
2022-12-23T09:22:40.721Z,81.36
2022-12-23T09:25:11.059Z,81.73
2022-12-23T09:27:38.351Z,82.20
2022-12-23T09:30:11.372Z,81.22
2022-12-23T09:32:54.260Z,80.70
2022-12-23T09:35:28.581Z,81.01
2022-12-23T09:37:56.863Z,80.09
2022-12-23T09:40:42.488Z,79.17
2022-12-23T09:43:35.826Z,75.87
2022-12-23T09:46:13.235Z,69.17
2022-12-23T09:48:54.372Z,65.24
2022-12-23T09:51:23.943Z,62.54
2022-12-23T09:57:29.348Z,58.99
2022-12-23T10:00:10.491Z,61.26
2022-12-23T10:02:44.144Z,63.19
2022-12-23T10:05:38.176Z,64.37
2022-12-23T10:08:17.140Z,66.09
2022-12-23T10:11:34.016Z,65.81
2022-12-23T10:14:22.298Z,68.76
2022-12-23T10:17:05.389Z,70.98
2022-12-23T10:20:20.862Z,70.97
2022-12-23T10:22:51.817Z,72.92
2022-12-23T10:25:33.347Z,73.24
2022-12-23T10:28:42.179Z,73.37
2022-12-23T10:32:19.280Z,72.18
2022-12-23T10:36:05.323Z,72.84
2022-12-23T10:42:13.601Z,72.83
2022-12-23T10:45:35.903Z,71.52
2022-12-23T10:48:23.972Z,70.24
2022-12-23T10:54:31.246Z,70.03
2022-12-23T11:00:24.837Z,69.86
2022-12-23T11:02:58.330Z,69.23
2022-12-23T11:05:37.283Z,68.87
2022-12-23T11:08:05.174Z,71.24
2022-12-23T11:10:39.141Z,70.83
2022-12-23T11:13:36.200Z,71.52
2022-12-23T11:16:24.881Z,70.47
2022-12-23T11:19:03.881Z,69.44
2022-12-23T11:21:38.197Z,70.21
2022-12-23T11:24:43.402Z,69.43
2022-12-23T11:27:45.713Z,69.04
2022-12-23T11:30:55.858Z,68.33
2022-12-23T11:37:21.658Z,68.60
2022-12-23T11:40:00.240Z,69.00
2022-12-23T11:43:05.111Z,70.42
2022-12-23T11:45:53.776Z,70.92
2022-12-23T11:49:31.585Z,70.65
2022-12-23T11:52:10.365Z,70.23
2022-12-23T11:54:44.001Z,69.87
2022-12-23T11:57:58.973Z,69.26
2022-12-23T12:00:37.795Z,69.21
2022-12-23T12:03:47.507Z,69.34
2022-12-23T12:06:21.007Z,69.99
2022-12-23T12:08:59.575Z,71.82
2022-12-23T12:11:32.852Z,70.63
2022-12-23T12:14:05.944Z,70.01
2022-12-23T12:16:46.399Z,71.21
2022-12-23T12:19:39.267Z,71.78
2022-12-23T12:22:20.332Z,72.19
2022-12-23T12:24:58.542Z,71.95
2022-12-23T12:27:37.329Z,71.14
2022-12-23T12:30:12.614Z,71.36
2022-12-23T12:32:48.565Z,70.89
2022-12-23T12:35:44.595Z,71.87
2022-12-23T12:38:32.579Z,71.72
2022-12-23T12:41:06.191Z,71.55
2022-12-23T12:44:09.718Z,71.43
2022-12-23T12:47:15.990Z,71.27
2022-12-23T12:50:28.279Z,69.91
2022-12-23T12:53:04.436Z,70.02
2022-12-23T12:55:39.989Z,69.14
2022-12-23T12:58:18.318Z,68.50
2022-12-23T13:01:07.876Z,67.83
2022-12-23T13:03:44.246Z,68.35
2022-12-23T13:06:25.489Z,67.73
2022-12-23T13:09:25.749Z,67.80
2022-12-23T13:12:14.958Z,67.33
2022-12-23T13:15:02.371Z,68.15
2022-12-23T13:18:06.886Z,67.33
2022-12-23T13:24:14.541Z,66.82
2022-12-23T13:27:51.791Z,67.01
2022-12-23T13:30:46.129Z,65.89
2022-12-23T13:34:13.322Z,66.25
2022-12-23T13:41:27.815Z,67.63
2022-12-23T13:44:47.907Z,67.14
2022-12-23T13:55:34.443Z,62.41
2022-12-23T13:58:13.614Z,59.95
2022-12-23T14:00:54.592Z,55.08
2022-12-23T14:03:46.320Z,50.02
2022-12-23T14:06:28.907Z,48.81
2022-12-23T14:08:58.632Z,49.10
2022-12-23T14:11:36.943Z,48.93
2022-12-23T14:14:32.624Z,49.15
2022-12-23T14:17:21.128Z,51.79
2022-12-23T14:20:11.602Z,52.70
2022-12-23T14:23:11.523Z,53.88
2022-12-23T14:26:11.435Z,55.90
2022-12-23T14:29:14.211Z,58.17
2022-12-23T14:31:55.903Z,58.32
2022-12-23T14:34:36.165Z,60.20
2022-12-23T14:37:25.189Z,62.73
2022-12-23T14:40:24.327Z,62.56
2022-12-23T14:43:31.827Z,63.18
2022-12-23T14:46:01.305Z,64.13
2022-12-23T14:49:09.877Z,64.36
2022-12-23T14:51:55.259Z,63.33
2022-12-23T14:55:30.763Z,63.98
2022-12-23T14:58:55.869Z,62.56
2022-12-23T15:02:21.334Z,59.36
2022-12-23T15:16:24.364Z,59.87
2022-12-23T15:20:12.130Z,62.33
2022-12-23T15:23:24.309Z,64.40
2022-12-23T15:27:24.587Z,65.12
2022-12-23T15:30:46.765Z,67.01
2022-12-23T15:37:20.445Z,70.63
2022-12-23T15:40:54.977Z,71.40
2022-12-23T15:44:31.663Z,71.95
2022-12-23T15:52:07.301Z,71.73
2022-12-23T15:55:27.112Z,73.54
2022-12-23T15:58:47.321Z,73.93
2022-12-23T16:01:42.716Z,74.37
2022-12-23T16:04:36.076Z,75.87
2022-12-23T16:07:37.856Z,76.76
2022-12-23T16:10:38.080Z,77.53
2022-12-23T16:14:11.289Z,77.96
2022-12-23T16:17:47.973Z,78.34
2022-12-23T16:21:02.444Z,78.99
2022-12-23T16:24:10.656Z,79.05
2022-12-23T16:27:25.279Z,79.18
2022-12-23T16:30:14.776Z,79.54
2022-12-23T16:33:06.871Z,80.15
2022-12-23T16:36:02.234Z,80.69
2022-12-23T16:38:29.990Z,80.88
2022-12-23T16:41:05.876Z,81.61
2022-12-23T16:43:56.944Z,81.99
2022-12-23T16:46:39.403Z,82.45
2022-12-23T16:49:29.547Z,82.74
2022-12-23T16:52:00.045Z,82.44
2022-12-23T16:55:15.919Z,82.78
2022-12-23T17:13:26.239Z,84.07
2022-12-23T17:16:34.978Z,84.01
2022-12-23T17:19:37.777Z,84.20
2022-12-23T17:23:01.518Z,84.38
2022-12-23T17:25:33.150Z,84.59
2022-12-23T17:28:36.610Z,84.28
2022-12-23T17:31:48.943Z,83.72
2022-12-23T17:38:33.709Z,83.07
2022-12-23T17:42:13.205Z,83.37
2022-12-23T17:45:37.445Z,83.79
2022-12-23T17:48:36.395Z,83.26
2022-12-23T17:52:03.376Z,82.62
2022-12-23T17:54:30.830Z,83.26
2022-12-23T17:57:03.144Z,82.93
2022-12-23T17:59:32.876Z,83.20
2022-12-23T18:02:26.902Z,83.69
2022-12-23T18:04:56.879Z,83.90
2022-12-23T18:07:28.237Z,84.19
2022-12-23T18:09:57.847Z,84.79
2022-12-23T18:12:35.449Z,83.74
2022-12-23T18:15:05.116Z,84.49
2022-12-23T18:20:45.167Z,83.60
2022-12-23T18:26:43.190Z,84.32
2022-12-23T18:29:18.518Z,84.15
2022-12-23T18:32:31.470Z,84.44
2022-12-23T18:35:51.667Z,84.76
2022-12-23T18:43:02.563Z,84.91
2022-12-23T18:58:01.344Z,83.65
2022-12-23T19:01:06.171Z,83.45
2022-12-23T19:07:56.416Z,83.54
2022-12-23T19:15:43.326Z,83.32
2022-12-23T19:27:15.206Z,81.85
2022-12-23T19:29:47.933Z,82.71
2022-12-23T19:32:15.155Z,82.92
2022-12-23T19:35:24.218Z,82.05
2022-12-23T19:39:05.274Z,82.32
2022-12-23T20:06:21.329Z,81.07
2022-12-23T22:29:34.292Z,84.14
2022-12-23T22:32:11.526Z,83.64
2022-12-23T22:34:38.201Z,84.38
2022-12-23T22:41:35.625Z,85.18
2022-12-23T22:44:12.264Z,86.39
2022-12-23T22:46:48.599Z,88.21
2022-12-23T22:57:15.550Z,88.45
2022-12-23T22:59:42.895Z,88.38
2022-12-23T23:02:09.843Z,88.07
2022-12-23T23:04:37.283Z,88.91
2022-12-23T23:07:04.707Z,89.42
2022-12-23T23:09:34.801Z,88.47
2022-12-23T23:12:13.494Z,88.72
2022-12-23T23:14:54.789Z,88.70
2022-12-23T23:17:29.275Z,88.84
2022-12-23T23:19:58.252Z,88.51
2022-12-23T23:22:28.280Z,88.64
2022-12-23T23:25:02.606Z,89.08
2022-12-23T23:27:29.771Z,88.51
2022-12-23T23:29:56.880Z,88.68
2022-12-23T23:32:24.322Z,88.30
2022-12-23T23:35:12.157Z,88.45
2022-12-23T23:37:52.967Z,88.01
2022-12-23T23:40:20.118Z,87.93
2022-12-23T23:42:48.458Z,88.38
2022-12-23T23:45:16.049Z,88.43
2022-12-23T23:47:45.967Z,88.24
2022-12-23T23:50:13.415Z,88.40
2022-12-23T23:52:40.564Z,87.95
2022-12-23T23:58:59.939Z,88.33
